»·PEaware :: N1488 KGCN-KFLG

N1488 :: KGCN-KFLG

FLIGHT INFORMATION

Flight Status: Arrived
Operator: Privately registered:
United States
More flights under this callsign
Pilot: Jonathan K. (33121)
Aircraft: CESSNA 172 SKYHAWK
(C172)
More flights by this aircraft type
Origin: KGCN Grand Canyon Natl Park
United States
Destination: KFLG Flagstaff Pulliam
United States
More flights between these airports :: More routes between these airports
Route: BISOP/N0108F100 SEZCY/N0109F090
File this flight plan on PilotEdge
Remarks: RMK / SIMBRIEF
Altitude:
(Current/Filed)
8,500ft
Speed:
(Current/Filed)
109kts
Departed: 02-Jan-21 09:56 AM
Arrived: 02-Jan-21 10:37 AM
Distance/Time
Traveled:
54nm/0:41
Distance/Time
To Go:
Arrived

Flight Plot

Page will automatically refresh every two minutes.

Flight plan parsing failed; only flown route is shown


Map Options




Map Legend


Flown Route
Filed Route
Departure Airport
Arrival Airport
Navaid (VOR, NDB)
Fix

Horizontal Profiles

Position Reports

Time Latitude Longitude Heading Altitude Ground
Speed
02-Jan-21 09:29 35.962212 -112.134735 47 6613ft 0kts
02-Jan-21 09:30 35.962212 -112.134735 47 6613ft 0kts
02-Jan-21 09:31 35.962212 -112.134735 47 6613ft 0kts
02-Jan-21 09:32 35.962212 -112.134735 47 6613ft 0kts
02-Jan-21 09:33 35.962212 -112.134735 47 6613ft 0kts
02-Jan-21 09:34 35.962212 -112.134735 47 6613ft 0kts
02-Jan-21 09:35 35.962212 -112.134735 47 6613ft 0kts
02-Jan-21 09:36 35.962212 -112.134735 47 6613ft 0kts
02-Jan-21 09:37 35.962212 -112.134735 47 6613ft 0kts
02-Jan-21 09:38 35.962212 -112.134735 47 6613ft 0kts
02-Jan-21 09:39 35.962212 -112.134735 47 6613ft 0kts
02-Jan-21 09:40 35.962212 -112.134735 47 6613ft 0kts
02-Jan-21 09:46 35.962212 -112.134735 47 6613ft 0kts
02-Jan-21 09:47 35.962212 -112.134735 47 6613ft 0kts
02-Jan-21 09:48 35.962212 -112.134735 47 6613ft 0kts
02-Jan-21 09:49 35.962212 -112.134735 47 6613ft 0kts
02-Jan-21 09:50 35.962212 -112.134735 47 6613ft 0kts
02-Jan-21 09:51 35.962212 -112.134735 47 6613ft 0kts
02-Jan-21 09:52 35.962212 -112.134735 47 6613ft 0kts
02-Jan-21 09:53 35.962349 -112.134796 242 6613ft 6kts
02-Jan-21 09:54 35.961410 -112.135900 284 6612ft 0kts
02-Jan-21 09:55 35.954986 -112.144126 221 6604ft 88kts
02-Jan-21 09:56 35.936402 -112.166516 229 7044ft 98kts
02-Jan-21 09:57 35.918117 -112.193902 235 7312ft 105kts
02-Jan-21 09:58 35.895668 -112.201463 133 7606ft 116kts
02-Jan-21 09:59 35.876148 -112.168823 123 7542ft 109kts
02-Jan-21 10:00 35.863224 -112.141943 124 8244ft 65kts
02-Jan-21 10:01 35.853762 -112.122450 127 8490ft 73kts
02-Jan-21 10:02 35.838820 -112.094465 127 8524ft 118kts
02-Jan-21 10:03 35.815227 -112.065217 155 8484ft 122kts
02-Jan-21 10:04 35.784867 -112.047536 157 8590ft 115kts
02-Jan-21 10:05 35.756511 -112.030792 157 8890ft 111kts
02-Jan-21 10:06 35.730861 -112.009615 146 9192ft 112kts
02-Jan-21 10:07 35.706123 -111.987452 147 9506ft 115kts
02-Jan-21 10:08 35.682139 -111.966034 147 9987ft 104kts
02-Jan-21 10:09 35.656076 -111.943041 147 9999ft 121kts
02-Jan-21 10:10 35.628411 -111.918868 147 9996ft 122kts
02-Jan-21 10:11 35.602522 -111.896143 147 10339ft 108kts
02-Jan-21 10:13 35.578718 -111.874945 147 10743ft 103kts
02-Jan-21 10:14 35.554342 -111.853208 147 11017ft 107kts
02-Jan-21 10:15 35.530859 -111.832240 147 11411ft 101kts
02-Jan-21 10:16 35.508258 -111.811889 147 11825ft 99kts
02-Jan-21 10:17 35.485351 -111.791123 147 12080ft 110kts
02-Jan-21 10:18 35.459086 -111.767917 147 12088ft 120kts
02-Jan-21 10:19 35.431568 -111.744015 147 12088ft 121kts
02-Jan-21 10:20 35.420403 -111.705244 106 12084ft 123kts
02-Jan-21 10:21 35.408286 -111.666794 111 12235ft 113kts
02-Jan-21 10:22 35.396949 -111.630795 112 12288ft 120kts
02-Jan-21 10:23 35.384794 -111.592246 112 12296ft 122kts
02-Jan-21 10:24 35.372409 -111.553065 112 12287ft 123kts
02-Jan-21 10:25 35.360113 -111.514294 112 12290ft 121kts
02-Jan-21 10:25 35.349812 -111.481806 112 12286ft 122kts
02-Jan-21 10:27 35.333066 -111.438910 165 12280ft 117kts
02-Jan-21 10:28 35.313666 -111.465342 227 12296ft 112kts
02-Jan-21 10:29 35.290884 -111.492009 226 12290ft 112kts
02-Jan-21 10:29 35.272300 -111.514068 225 12068ft 115kts
02-Jan-21 10:30 35.255452 -111.545306 240 11119ft 114kts
02-Jan-21 10:32 35.226918 -111.578078 222 9235ft 118kts
02-Jan-21 10:32 35.208836 -111.597761 222 8616ft 94kts
02-Jan-21 10:33 35.188375 -111.619530 223 8108ft 99kts
02-Jan-21 10:34 35.166636 -111.641193 222 7587ft 99kts
02-Jan-21 10:35 35.147733 -111.661222 224 7051ft 74kts
02-Jan-21 10:36 35.142779 -111.668044 305 7007ft 0kts
02-Jan-21 10:37 35.142781 -111.668048 305 7007ft 1kts
02-Jan-21 10:38 35.137729 -111.675071 191 7010ft 14kts

Navigation Log

Ident Type
Flight plan parsing failed, navigation log unavailable